createdAt,value
2023-06-28T00:03:39.020Z,3.20
2023-06-28T00:08:42.070Z,7.10
2023-06-28T00:13:44.518Z,3.70
2023-06-28T00:18:47.040Z,3.20
2023-06-28T00:23:50.887Z,3.90
2023-06-28T00:28:53.462Z,4.80
2023-06-28T00:33:55.849Z,5.00
2023-06-28T00:38:59.299Z,3.60
2023-06-28T00:44:01.927Z,3.40
2023-06-28T00:49:05.566Z,2.60
2023-06-28T00:54:08.153Z,4.10
2023-06-28T00:59:11.495Z,2.60
2023-06-28T01:04:14.926Z,4.10
2023-06-28T01:09:17.697Z,4.10
2023-06-28T01:14:21.377Z,5.50
2023-06-28T01:19:28.833Z,4.40
2023-06-28T01:24:32.260Z,5.30
2023-06-28T01:29:35.330Z,4.70
2023-06-28T01:34:37.776Z,5.10
2023-06-28T01:39:40.832Z,3.10
2023-06-28T01:44:43.494Z,5.00
2023-06-28T01:49:47.241Z,4.10
2023-06-28T01:54:50.751Z,4.70
2023-06-28T01:59:53.273Z,4.40
2023-06-28T02:04:55.831Z,4.00
2023-06-28T02:09:58.645Z,4.10
2023-06-28T02:15:05.153Z,4.20
2023-06-28T02:20:11.651Z,6.60
2023-06-28T02:25:14.196Z,5.70
2023-06-28T02:30:16.762Z,6.80
2023-06-28T02:35:19.747Z,4.70
2023-06-28T02:40:22.636Z,8.20
2023-06-28T02:50:27.423Z,3.90
2023-06-28T02:55:30.035Z,7.00
2023-06-28T03:00:32.706Z,5.80
2023-06-28T03:05:35.388Z,6.20
2023-06-28T03:10:38.040Z,3.80
2023-06-28T03:15:40.700Z,5.10
2023-06-28T03:20:43.654Z,7.10
2023-06-28T03:25:46.403Z,3.50
2023-06-28T03:35:51.676Z,5.40
2023-06-28T03:40:54.282Z,5.10
2023-06-28T03:45:56.879Z,6.10
2023-06-28T03:50:59.536Z,7.20
2023-06-28T04:01:04.783Z,5.60
2023-06-28T04:06:07.212Z,4.60
2023-06-28T04:11:09.692Z,7.10
2023-06-28T04:16:12.829Z,4.00
2023-06-28T04:21:15.290Z,4.00
2023-06-28T04:26:18.087Z,4.80
2023-06-28T04:31:21.010Z,6.70
2023-06-28T04:36:24.180Z,5.40
2023-06-28T04:41:27.514Z,7.00
2023-06-28T04:46:30.199Z,7.60
2023-06-28T04:51:32.787Z,4.30
2023-06-28T04:56:35.256Z,11.20
2023-06-28T05:01:38.689Z,5.80
2023-06-28T05:06:41.432Z,9.80
2023-06-28T05:11:44.593Z,7.90
2023-06-28T05:16:47.685Z,9.50
2023-06-28T05:21:50.738Z,5.90
2023-06-28T05:26:53.373Z,5.80
2023-06-28T05:31:56.146Z,7.00
2023-06-28T05:36:58.621Z,7.20
2023-06-28T05:42:01.168Z,6.20
2023-06-28T05:47:04.010Z,5.60
2023-06-28T05:52:07.521Z,5.90
2023-06-28T05:57:10.818Z,8.70
2023-06-28T06:02:13.340Z,9.30
2023-06-28T06:07:15.979Z,7.10
2023-06-28T06:12:22.375Z,9.50
2023-06-28T06:17:24.905Z,7.70
2023-06-28T06:22:27.706Z,9.10
2023-06-28T06:27:30.368Z,19.80
2023-06-28T06:32:32.814Z,10.40
2023-06-28T06:37:35.223Z,12.80
2023-06-28T06:42:38.354Z,6.50
2023-06-28T06:47:41.250Z,7.60
2023-06-28T06:52:43.765Z,8.90
2023-06-28T06:57:46.464Z,22.10
2023-06-28T07:02:49.242Z,6.40
2023-06-28T07:07:51.749Z,6.30
2023-06-28T07:12:54.377Z,5.70
2023-06-28T07:17:57.010Z,12.60
2023-06-28T07:23:00.122Z,8.60
2023-06-28T07:33:06.072Z,11.10
2023-06-28T07:38:08.884Z,6.50
2023-06-28T07:43:11.404Z,5.00
2023-06-28T07:48:13.958Z,5.80
2023-06-28T07:53:16.422Z,6.80
2023-06-28T07:58:19.338Z,6.70
2023-06-28T08:03:23.408Z,23.40
2023-06-28T08:08:25.906Z,210.90
2023-06-28T08:13:28.318Z,248.10
